createdAt,value
2023-05-20T00:00:01.899Z,6.67
2023-05-20T00:02:30.704Z,6.10
2023-05-20T00:04:59.473Z,9.83
2023-05-20T00:07:28.072Z,8.17
2023-05-20T00:09:58.269Z,8.17
2023-05-20T00:12:26.825Z,8.30
2023-05-20T00:14:56.161Z,9.20
2023-05-20T00:17:26.571Z,8.27
2023-05-20T00:19:55.267Z,9.80
2023-05-20T00:22:23.963Z,9.60
2023-05-20T00:24:54.853Z,9.90
2023-05-20T00:27:24.852Z,8.80
2023-05-20T00:29:53.387Z,9.10
2023-05-20T00:32:21.986Z,8.97
2023-05-20T00:34:58.767Z,7.87
2023-05-20T00:37:27.462Z,8.93
2023-05-20T00:39:56.226Z,9.50
2023-05-20T00:42:26.608Z,9.40
2023-05-20T00:44:55.284Z,9.60
2023-05-20T00:47:26.907Z,10.37
2023-05-20T00:49:55.616Z,10.50
2023-05-20T00:52:24.419Z,9.83
2023-05-20T00:54:53.092Z,11.00
2023-05-20T00:57:21.860Z,9.60
2023-05-20T00:59:52.012Z,9.90
2023-05-20T01:02:21.372Z,10.27
2023-05-20T01:04:50.173Z,11.37
2023-05-20T01:07:19.621Z,10.97
2023-05-20T01:09:49.541Z,11.87
2023-05-20T01:12:19.643Z,11.80
2023-05-20T01:14:51.062Z,11.67
2023-05-20T01:17:24.675Z,11.97
2023-05-20T01:19:53.947Z,12.00
2023-05-20T01:22:22.893Z,11.07
2023-05-20T01:24:53.691Z,11.13
2023-05-20T01:27:23.623Z,12.47
2023-05-20T01:29:53.044Z,10.87
2023-05-20T01:32:23.318Z,10.50
2023-05-20T01:34:52.565Z,9.83
2023-05-20T01:37:21.831Z,10.10
2023-05-20T01:39:51.796Z,11.37
2023-05-20T01:42:22.580Z,11.20
2023-05-20T01:44:51.344Z,10.90
2023-05-20T01:47:19.965Z,11.90
2023-05-20T01:49:49.629Z,12.07
2023-05-20T01:52:18.969Z,12.43
2023-05-20T01:54:51.393Z,14.00
2023-05-20T01:57:21.873Z,14.07
2023-05-20T01:59:50.440Z,11.93
2023-05-20T02:02:19.173Z,13.63
2023-05-20T02:04:49.112Z,12.70
2023-05-20T02:07:18.829Z,14.47
2023-05-20T02:09:47.744Z,14.13
2023-05-20T02:12:17.475Z,13.40
2023-05-20T02:14:47.891Z,13.30
2023-05-20T02:17:16.877Z,12.47
2023-05-20T02:19:45.813Z,14.00
2023-05-20T02:22:14.486Z,12.17
2023-05-20T02:24:43.967Z,13.30
2023-05-20T02:27:13.101Z,15.03
2023-05-20T02:29:42.005Z,15.13
2023-05-20T02:32:12.736Z,13.67
2023-05-20T02:34:41.342Z,13.83
2023-05-20T02:37:10.059Z,13.20
2023-05-20T02:39:38.756Z,14.73
2023-05-20T02:42:07.513Z,12.67
2023-05-20T02:44:36.195Z,11.90
2023-05-20T02:47:04.818Z,13.70
2023-05-20T02:49:34.717Z,13.53
2023-05-20T02:52:04.357Z,12.67
2023-05-20T02:54:33.028Z,14.27
2023-05-20T02:57:02.304Z,12.27
2023-05-20T02:59:31.153Z,19.17
2023-05-20T03:02:00.028Z,21.70
2023-05-20T03:04:28.896Z,12.13
2023-05-20T03:06:58.980Z,12.80
2023-05-20T03:09:27.615Z,13.33
2023-05-20T03:11:56.120Z,12.17
2023-05-20T03:14:24.788Z,11.03
2023-05-20T03:16:55.584Z,13.90
2023-05-20T03:19:25.415Z,13.87
2023-05-20T03:21:56.012Z,13.77
2023-05-20T03:24:26.135Z,17.43
2023-05-20T03:26:54.743Z,18.60
2023-05-20T03:29:23.327Z,14.50
2023-05-20T03:31:52.024Z,17.70
2023-05-20T03:34:20.974Z,17.23
2023-05-20T03:36:49.600Z,23.53
2023-05-20T03:39:18.248Z,16.57
2023-05-20T03:41:48.289Z,17.40
2023-05-20T03:44:17.395Z,16.53
2023-05-20T03:46:46.078Z,20.97
2023-05-20T03:49:14.745Z,17.43
2023-05-20T03:51:43.233Z,14.90
2023-05-20T03:54:12.181Z,15.87
2023-05-20T03:56:40.813Z,25.10
2023-05-20T03:59:10.909Z,22.93
2023-05-20T04:01:39.665Z,16.03
2023-05-20T04:04:08.345Z,14.13
2023-05-20T04:06:37.150Z,14.00
2023-05-20T04:09:06.272Z,13.03
2023-05-20T04:11:34.923Z,20.03
2023-05-20T04:14:03.441Z,21.37
2023-05-20T04:16:33.712Z,16.37
2023-05-20T04:19:02.835Z,15.47
2023-05-20T04:21:31.527Z,14.80
2023-05-20T04:24:00.406Z,15.07
2023-05-20T04:26:29.068Z,12.00
2023-05-20T04:29:02.065Z,12.80
2023-05-20T04:31:30.763Z,14.90
2023-05-20T04:34:00.762Z,16.87
2023-05-20T04:36:29.760Z,14.73
2023-05-20T04:38:58.405Z,15.67
2023-05-20T04:41:27.443Z,17.17
2023-05-20T04:43:59.968Z,12.97
2023-05-20T04:46:28.855Z,12.50
2023-05-20T04:48:57.471Z,12.07
2023-05-20T04:51:27.555Z,10.93
2023-05-20T04:53:56.172Z,10.63
2023-05-20T04:56:24.662Z,9.50
2023-05-20T04:58:53.344Z,14.00
2023-05-20T05:01:22.089Z,8.17
2023-05-20T05:03:50.637Z,11.00
2023-05-20T05:06:19.253Z,10.17
2023-05-20T05:08:49.287Z,10.60
2023-05-20T05:11:17.799Z,10.60
2023-05-20T05:13:46.429Z,11.73
2023-05-20T05:16:15.060Z,10.50
2023-05-20T05:18:43.670Z,10.33
2023-05-20T05:21:12.373Z,10.63
2023-05-20T05:23:42.595Z,10.83
2023-05-20T05:26:12.517Z,8.73
2023-05-20T05:28:43.787Z,9.77
2023-05-20T05:31:12.517Z,9.47
2023-05-20T05:33:41.226Z,9.70
2023-05-20T05:36:09.880Z,9.93
2023-05-20T05:38:38.399Z,9.20
2023-05-20T05:41:07.433Z,8.83
2023-05-20T05:43:37.461Z,9.30
2023-05-20T05:46:06.708Z,8.83
2023-05-20T05:48:35.389Z,9.57
2023-05-20T05:51:04.038Z,8.97
2023-05-20T05:53:32.557Z,9.63
2023-05-20T05:56:01.289Z,8.90
2023-05-20T05:58:29.995Z,8.77
2023-05-20T06:00:59.929Z,7.90
2023-05-20T06:03:30.123Z,8.33
2023-05-20T06:05:59.464Z,7.43
2023-05-20T06:08:27.973Z,7.93
2023-05-20T06:10:56.532Z,8.60
2023-05-20T06:13:25.319Z,8.00
2023-05-20T06:15:54.270Z,7.80
2023-05-20T06:18:24.500Z,8.57
2023-05-20T06:20:56.971Z,8.40
2023-05-20T06:23:25.708Z,8.67
2023-05-20T06:25:54.229Z,8.67
2023-05-20T06:28:22.868Z,8.37
2023-05-20T06:30:53.035Z,8.00
2023-05-20T06:33:21.772Z,8.00
2023-05-20T06:35:51.977Z,8.70
2023-05-20T06:38:20.579Z,7.90
2023-05-20T06:40:49.169Z,8.03
2023-05-20T06:43:17.884Z,7.80
2023-05-20T06:45:46.715Z,8.13
2023-05-20T06:48:15.222Z,7.77
2023-05-20T06:50:43.939Z,8.10
2023-05-20T06:53:13.826Z,8.47
2023-05-20T06:55:42.400Z,7.83
2023-05-20T06:58:11.291Z,8.90
2023-05-20T07:00:39.800Z,8.93
2023-05-20T07:03:08.421Z,8.40
2023-05-20T07:05:37.156Z,8.17
2023-05-20T07:08:05.781Z,7.40
2023-05-20T07:10:35.906Z,7.67
2023-05-20T07:13:04.746Z,7.67
2023-05-20T07:15:33.470Z,7.70
2023-05-20T07:18:02.322Z,7.93
2023-05-20T07:20:31.202Z,7.23
2023-05-20T07:22:59.819Z,7.37
2023-05-20T07:25:28.352Z,7.33
2023-05-20T07:28:00.102Z,6.93
2023-05-20T07:30:28.661Z,6.80
2023-05-20T07:32:57.219Z,6.50
2023-05-20T07:35:25.965Z,6.70
2023-05-20T07:37:54.481Z,6.30
2023-05-20T07:40:23.015Z,6.37
2023-05-20T07:42:51.666Z,6.47
2023-05-20T07:45:21.743Z,6.20
2023-05-20T07:47:50.282Z,6.90
2023-05-20T07:50:19.076Z,6.10
2023-05-20T07:52:55.923Z,5.73
2023-05-20T07:55:25.495Z,5.80
2023-05-20T07:57:53.978Z,6.03
2023-05-20T08:00:24.299Z,5.97
2023-05-20T08:02:53.275Z,5.70
2023-05-20T08:05:22.752Z,5.37
2023-05-20T08:07:51.363Z,5.90
2023-05-20T08:10:20.058Z,5.10
2023-05-20T08:12:49.110Z,6.03
2023-05-20T08:15:17.868Z,5.97
2023-05-20T08:17:47.855Z,5.33
2023-05-20T08:20:17.026Z,4.60
2023-05-20T08:22:45.716Z,5.43
2023-05-20T08:25:14.279Z,5.80
2023-05-20T08:27:42.782Z,4.90
2023-05-20T08:30:11.920Z,4.40
2023-05-20T08:32:40.541Z,4.13
2023-05-20T08:35:10.956Z,5.17
2023-05-20T08:37:39.593Z,4.47
2023-05-20T08:40:09.983Z,4.37
2023-05-20T08:42:38.464Z,4.10
2023-05-20T08:45:07.462Z,3.67
2023-05-20T08:47:36.165Z,4.20
2023-05-20T08:50:04.729Z,4.17
2023-05-20T08:52:36.809Z,4.13
2023-05-20T08:55:07.999Z,4.17
2023-05-20T08:57:36.941Z,3.73
2023-05-20T09:00:10.861Z,4.17
2023-05-20T09:02:39.437Z,4.30
2023-05-20T09:05:09.384Z,4.53
2023-05-20T09:07:39.446Z,3.80
2023-05-20T09:10:08.838Z,3.77
2023-05-20T09:12:37.576Z,4.00
2023-05-20T09:15:06.500Z,3.40
2023-05-20T09:17:37.365Z,3.53
2023-05-20T09:20:09.209Z,3.67
2023-05-20T09:22:40.792Z,3.80
2023-05-20T09:25:12.330Z,3.57
2023-05-20T09:27:42.078Z,3.03
2023-05-20T09:30:12.825Z,3.30
2023-05-20T09:32:41.658Z,3.10
2023-05-20T09:35:10.631Z,3.30
2023-05-20T09:37:41.252Z,3.13
2023-05-20T09:40:10.737Z,2.70
2023-05-20T09:42:42.834Z,2.87
2023-05-20T09:45:11.612Z,2.90
2023-05-20T09:47:40.729Z,3.30
2023-05-20T09:50:10.385Z,2.70
2023-05-20T09:52:41.024Z,3.40
2023-05-20T09:55:11.620Z,3.13
2023-05-20T09:57:40.358Z,2.97
2023-05-20T10:00:10.471Z,2.90
2023-05-20T10:02:39.727Z,3.23
2023-05-20T10:05:10.180Z,2.97
2023-05-20T10:07:56.821Z,3.10
2023-05-20T10:10:31.192Z,3.17
2023-05-20T10:13:06.353Z,2.90
2023-05-20T10:15:40.384Z,3.07
2023-05-20T10:18:13.648Z,3.10
2023-05-20T10:20:48.976Z,2.50
2023-05-20T10:23:24.296Z,2.90
2023-05-20T10:25:55.187Z,2.87
2023-05-20T10:28:31.648Z,2.80
2023-05-20T10:31:00.538Z,2.97
2023-05-20T10:33:29.541Z,2.93
2023-05-20T10:36:00.492Z,2.70
2023-05-20T10:38:29.207Z,2.90
2023-05-20T10:41:11.453Z,3.30
2023-05-20T10:43:40.092Z,3.00
2023-05-20T10:46:17.072Z,2.80
2023-05-20T10:48:50.488Z,2.47
2023-05-20T10:51:19.112Z,2.93
2023-05-20T10:53:48.140Z,2.83
2023-05-20T10:56:22.752Z,2.80
2023-05-20T10:58:51.745Z,2.30
2023-05-20T11:01:20.587Z,2.70
2023-05-20T11:03:50.037Z,3.00
2023-05-20T11:06:19.369Z,2.50
2023-05-20T11:08:48.194Z,2.40
2023-05-20T11:11:17.419Z,2.33
2023-05-20T11:13:47.743Z,2.83
2023-05-20T11:16:16.304Z,2.47
2023-05-20T11:18:47.550Z,2.83
2023-05-20T11:21:16.079Z,2.57
2023-05-20T11:23:44.578Z,2.33
2023-05-20T11:26:13.345Z,2.07
2023-05-20T11:28:43.544Z,1.80
2023-05-20T11:31:14.350Z,2.10
2023-05-20T11:33:43.645Z,2.20
2023-05-20T11:36:26.409Z,2.10
2023-05-20T11:38:56.663Z,2.00
2023-05-20T11:41:26.431Z,1.60
2023-05-20T11:43:59.577Z,2.17
2023-05-20T11:46:29.935Z,1.90
2023-05-20T11:48:59.283Z,2.10
2023-05-20T11:51:29.191Z,2.05
2023-05-20T11:54:01.812Z,2.47
2023-05-20T11:56:31.299Z,1.80
2023-05-20T11:59:01.217Z,1.88
2023-05-20T12:01:31.648Z,2.17
2023-05-20T12:04:00.578Z,2.25
2023-05-20T12:06:29.666Z,2.30
2023-05-20T12:08:58.160Z,2.13
2023-05-20T12:11:26.742Z,2.20
2023-05-20T12:13:55.389Z,2.70
2023-05-20T12:16:23.968Z,2.50
2023-05-20T12:18:54.040Z,2.45
2023-05-20T12:21:22.684Z,2.28
2023-05-20T12:23:57.584Z,2.30
2023-05-20T12:26:26.912Z,2.58
2023-05-20T12:28:55.460Z,2.25
2023-05-20T12:31:24.126Z,2.38
2023-05-20T12:33:54.232Z,2.45
2023-05-20T12:36:22.992Z,2.10
2023-05-20T12:38:51.699Z,2.42
2023-05-20T12:41:20.819Z,2.50
2023-05-20T12:43:49.339Z,2.67
2023-05-20T12:46:17.981Z,2.65
2023-05-20T12:48:46.618Z,2.70
2023-05-20T12:51:16.504Z,2.42
2023-05-20T12:53:45.297Z,2.40
2023-05-20T12:56:13.974Z,2.60
2023-05-20T12:58:42.515Z,2.75
2023-05-20T13:01:11.231Z,2.53
2023-05-20T13:03:39.809Z,2.70
2023-05-20T13:06:08.378Z,2.42
2023-05-20T13:08:38.500Z,2.53
2023-05-20T13:11:06.997Z,2.40
2023-05-20T13:13:35.512Z,2.70
2023-05-20T13:16:04.392Z,2.70
2023-05-20T13:18:33.004Z,2.50
2023-05-20T13:21:01.664Z,2.58
2023-05-20T13:23:30.329Z,2.53
2023-05-20T13:26:00.879Z,2.63
2023-05-20T13:28:29.417Z,2.58
2023-05-20T13:30:58.099Z,2.38
2023-05-20T13:33:26.870Z,2.80
2023-05-20T13:35:55.388Z,2.47
2023-05-20T13:38:24.236Z,2.60
2023-05-20T13:40:52.828Z,2.53
2023-05-20T13:43:22.740Z,2.80
2023-05-20T13:45:51.424Z,2.83
2023-05-20T13:48:20.098Z,2.72
2023-05-20T13:50:48.628Z,2.70
2023-05-20T13:53:17.291Z,2.80
2023-05-20T13:55:46.185Z,2.60
2023-05-20T13:58:14.772Z,2.67
2023-05-20T14:00:44.779Z,2.53
2023-05-20T14:03:13.527Z,2.40
2023-05-20T14:05:42.072Z,2.40
2023-05-20T14:08:10.663Z,2.40
2023-05-20T14:10:39.302Z,2.17
2023-05-20T14:13:09.074Z,2.70
2023-05-20T14:15:37.761Z,2.60
2023-05-20T14:18:07.881Z,2.40
2023-05-20T14:20:36.621Z,2.72
2023-05-20T14:23:05.434Z,2.90
2023-05-20T14:25:34.357Z,2.33
2023-05-20T14:28:02.841Z,2.75
2023-05-20T14:30:31.473Z,2.75
2023-05-20T14:33:00.298Z,2.67
2023-05-20T14:35:30.272Z,2.58
2023-05-20T14:37:58.916Z,2.60
2023-05-20T14:40:27.913Z,2.70
2023-05-20T14:42:56.408Z,2.97
2023-05-20T14:45:25.072Z,2.38
2023-05-20T14:47:53.726Z,2.58
2023-05-20T14:50:22.267Z,2.55
2023-05-20T14:52:52.546Z,2.38
2023-05-20T14:55:21.187Z,2.33
2023-05-20T14:57:50.074Z,2.90
2023-05-20T15:00:19.272Z,2.45
2023-05-20T15:02:48.037Z,2.75
2023-05-20T15:05:18.108Z,2.60
2023-05-20T15:07:47.062Z,2.50
2023-05-20T15:10:17.119Z,2.50
2023-05-20T15:12:45.665Z,2.70
2023-05-20T15:15:14.270Z,2.53
2023-05-20T15:17:42.941Z,2.60
2023-05-20T15:20:12.021Z,2.53
2023-05-20T15:22:41.622Z,2.50
2023-05-20T15:25:10.397Z,2.80
2023-05-20T15:27:40.267Z,2.65
2023-05-20T15:30:09.424Z,2.55
2023-05-20T15:32:38.147Z,2.70
2023-05-20T15:35:07.195Z,2.60
2023-05-20T15:37:36.032Z,2.65
2023-05-20T15:40:04.663Z,2.38
2023-05-20T15:42:33.444Z,2.85
2023-05-20T15:45:03.452Z,2.67
2023-05-20T15:47:32.108Z,2.60
2023-05-20T15:50:02.325Z,2.70
2023-05-20T15:52:31.069Z,2.75
2023-05-20T15:54:59.664Z,2.72
2023-05-20T15:57:29.329Z,2.63
2023-05-20T15:59:58.138Z,2.30
2023-05-20T16:02:28.445Z,2.80
2023-05-20T16:04:57.080Z,2.50
2023-05-20T16:07:25.779Z,2.67
2023-05-20T16:09:54.399Z,2.83
2023-05-20T16:12:22.891Z,2.75
2023-05-20T16:14:51.585Z,2.67
2023-05-20T16:17:21.358Z,2.42
2023-05-20T16:19:51.589Z,2.70
2023-05-20T16:22:20.718Z,2.63
2023-05-20T16:24:49.240Z,2.80
2023-05-20T16:27:17.760Z,2.53
2023-05-20T16:29:47.560Z,2.22
2023-05-20T16:32:16.076Z,2.90
2023-05-20T16:34:44.618Z,2.50
2023-05-20T16:37:14.663Z,2.72
2023-05-20T16:39:43.358Z,2.63
2023-05-20T16:42:11.904Z,2.63
2023-05-20T16:44:40.738Z,2.45
2023-05-20T16:47:09.971Z,2.80
2023-05-20T16:49:38.534Z,2.65
2023-05-20T16:52:07.916Z,2.55
2023-05-20T16:54:38.163Z,2.80
2023-05-20T16:57:07.741Z,2.60
2023-05-20T16:59:36.480Z,2.80
2023-05-20T17:02:05.210Z,2.50
2023-05-20T17:04:33.804Z,2.80
2023-05-20T17:07:02.863Z,2.67
2023-05-20T17:09:31.615Z,2.65
2023-05-20T17:12:01.536Z,2.65
2023-05-20T17:14:30.112Z,2.45
2023-05-20T17:16:58.906Z,2.63
2023-05-20T17:19:27.574Z,2.45
2023-05-20T17:21:56.222Z,2.58
2023-05-20T17:24:24.907Z,2.20
2023-05-20T17:26:53.419Z,2.65
2023-05-20T17:29:23.554Z,2.83
2023-05-20T17:31:52.200Z,2.70
2023-05-20T17:34:20.796Z,2.60
2023-05-20T17:36:49.515Z,2.47
2023-05-20T17:39:18.183Z,2.50
2023-05-20T17:41:46.835Z,2.42
2023-05-20T17:44:15.623Z,2.50
2023-05-20T17:46:45.820Z,2.60
2023-05-20T17:49:14.455Z,2.20
2023-05-20T17:51:43.093Z,2.40
2023-05-20T17:54:11.801Z,2.30
2023-05-20T17:56:40.337Z,2.20
2023-05-20T17:59:08.948Z,2.45
2023-05-20T18:01:37.586Z,2.30
2023-05-20T18:04:07.729Z,2.30
2023-05-20T18:06:36.759Z,2.60
2023-05-20T18:09:06.126Z,2.28
2023-05-20T18:11:35.182Z,2.30
2023-05-20T18:14:04.158Z,2.47
2023-05-20T18:16:32.861Z,2.22
2023-05-20T18:19:01.469Z,2.30
2023-05-20T18:21:31.553Z,2.35
2023-05-20T18:24:00.204Z,2.40
2023-05-20T18:26:28.768Z,2.28
2023-05-20T18:28:57.350Z,2.40
2023-05-20T18:31:27.105Z,2.50
2023-05-20T18:33:57.007Z,2.40
2023-05-20T18:36:27.504Z,2.28
2023-05-20T18:38:57.625Z,2.10
2023-05-20T18:41:32.323Z,2.22
2023-05-20T18:44:08.015Z,2.13
2023-05-20T18:46:36.568Z,2.20
2023-05-20T18:49:05.071Z,2.30
2023-05-20T18:51:34.225Z,2.25
2023-05-20T18:54:04.125Z,2.15
2023-05-20T18:56:33.516Z,2.33
2023-05-20T18:59:02.122Z,2.33
2023-05-20T19:01:31.242Z,2.50
2023-05-20T19:04:00.041Z,2.13
2023-05-20T19:06:29.011Z,2.27
2023-05-20T19:08:57.854Z,2.10
2023-05-20T19:11:27.857Z,2.10
2023-05-20T19:13:56.485Z,2.07
2023-05-20T19:16:25.087Z,1.97
2023-05-20T19:18:53.765Z,2.00
2023-05-20T19:21:22.380Z,2.00
2023-05-20T19:23:50.953Z,2.00
2023-05-20T19:26:19.589Z,2.10
2023-05-20T19:28:49.606Z,2.23
2023-05-20T19:31:21.300Z,2.23
2023-05-20T19:33:50.096Z,1.80
2023-05-20T19:36:18.926Z,2.00
2023-05-20T19:38:47.962Z,2.20
2023-05-20T19:41:16.605Z,2.30
2023-05-20T19:43:45.332Z,2.10
2023-05-20T19:46:15.301Z,1.93
2023-05-20T19:48:44.134Z,2.20
2023-05-20T19:51:12.928Z,2.10
2023-05-20T19:53:41.442Z,2.37
2023-05-20T19:56:09.973Z,2.00
2023-05-20T19:58:38.836Z,1.90
2023-05-20T20:01:07.726Z,2.10
2023-05-20T20:03:38.056Z,2.50
2023-05-20T20:06:06.879Z,1.90
2023-05-20T20:08:37.927Z,1.93
2023-05-20T20:11:06.412Z,2.37
2023-05-20T20:13:35.133Z,1.80
2023-05-20T20:16:03.940Z,1.80
2023-05-20T20:18:33.520Z,1.77
2023-05-20T20:21:05.978Z,2.07
2023-05-20T20:23:36.831Z,1.90
2023-05-20T20:26:08.004Z,1.97
2023-05-20T20:28:36.525Z,1.70
2023-05-20T20:31:05.075Z,1.73
2023-05-20T20:33:33.794Z,1.70
2023-05-20T20:36:03.741Z,1.87
2023-05-20T20:38:32.399Z,1.67
2023-05-20T20:41:03.882Z,2.00
2023-05-20T20:43:34.869Z,1.70
2023-05-20T20:46:03.578Z,2.17
2023-05-20T20:48:32.822Z,1.80
2023-05-20T20:51:02.083Z,1.70
2023-05-20T20:53:32.262Z,1.97
2023-05-20T20:56:00.984Z,1.70
2023-05-20T20:58:29.557Z,1.77
2023-05-20T21:00:58.220Z,2.00
2023-05-20T21:03:26.856Z,1.70
2023-05-20T21:05:55.383Z,2.23
2023-05-20T21:08:27.875Z,1.90
2023-05-20T21:10:59.458Z,1.80
2023-05-20T21:13:28.574Z,2.40
2023-05-20T21:15:57.131Z,1.97
2023-05-20T21:18:25.657Z,2.17
2023-05-20T21:20:55.106Z,1.70
2023-05-20T21:23:24.220Z,1.93
2023-05-20T21:25:52.709Z,1.70
2023-05-20T21:28:22.791Z,1.90
2023-05-20T21:30:51.524Z,1.90
2023-05-20T21:33:20.080Z,1.93
2023-05-20T21:35:48.845Z,1.73
2023-05-20T21:38:17.509Z,1.80
2023-05-20T21:40:46.106Z,1.67
2023-05-20T21:43:14.828Z,1.83
2023-05-20T21:45:45.807Z,1.90
2023-05-20T21:48:14.326Z,1.60
2023-05-20T21:50:43.123Z,1.70
2023-05-20T21:53:11.653Z,2.00
2023-05-20T21:55:40.152Z,2.00
2023-05-20T21:58:08.900Z,1.87
2023-05-20T22:00:37.395Z,3.33
2023-05-20T22:03:07.399Z,1.90
2023-05-20T22:05:37.399Z,1.80
2023-05-20T22:08:06.244Z,1.70
2023-05-20T22:10:36.589Z,2.00
2023-05-20T22:13:05.809Z,1.90
2023-05-20T22:15:34.586Z,1.83
2023-05-20T22:18:06.792Z,2.07
2023-05-20T22:20:38.602Z,1.93
2023-05-20T22:23:07.119Z,2.00
2023-05-20T22:25:36.475Z,2.20
2023-05-20T22:28:05.574Z,2.17
2023-05-20T22:30:34.223Z,2.30
2023-05-20T22:33:03.989Z,2.00
2023-05-20T22:35:32.987Z,2.00
2023-05-20T22:38:03.769Z,2.20
2023-05-20T22:40:33.661Z,2.03
2023-05-20T22:43:02.263Z,2.33
2023-05-20T22:45:30.785Z,2.03
2023-05-20T22:47:59.488Z,2.40
2023-05-20T22:50:28.150Z,1.90
2023-05-20T22:52:56.663Z,2.40
2023-05-20T22:55:26.737Z,1.90
2023-05-20T22:57:55.605Z,2.27
2023-05-20T23:00:24.092Z,1.93
2023-05-20T23:02:52.756Z,2.37
2023-05-20T23:05:21.568Z,2.10
2023-05-20T23:07:52.688Z,2.20
2023-05-20T23:10:21.480Z,2.13
2023-05-20T23:12:51.789Z,2.10
2023-05-20T23:15:20.615Z,2.40
2023-05-20T23:17:51.353Z,2.10
2023-05-20T23:20:23.063Z,2.03
2023-05-20T23:22:51.746Z,2.30
2023-05-20T23:25:20.284Z,2.07
2023-05-20T23:27:49.085Z,1.97
2023-05-20T23:30:19.138Z,2.10
2023-05-20T23:32:47.664Z,3.27
2023-05-20T23:35:16.388Z,2.37
2023-05-20T23:37:45.007Z,2.10
2023-05-20T23:40:14.067Z,2.03
2023-05-20T23:42:42.678Z,2.20
2023-05-20T23:45:12.038Z,2.27
2023-05-20T23:47:42.146Z,2.00
2023-05-20T23:50:11.123Z,2.63
2023-05-20T23:52:40.405Z,2.80
2023-05-20T23:55:10.385Z,2.40
2023-05-20T23:57:39.093Z,2.60
